createdAt,value
2022-09-28T00:00:27.115Z,21.49
2022-09-28T00:05:32.742Z,21.46
2022-09-28T00:10:35.352Z,21.43
2022-09-28T00:15:37.973Z,21.41
2022-09-28T00:20:41.992Z,21.39
2022-09-28T00:25:44.566Z,21.35
2022-09-28T00:30:47.143Z,21.32
2022-09-28T00:35:57.284Z,21.30
2022-09-28T00:41:00.239Z,21.29
2022-09-28T00:46:03.938Z,21.24
2022-09-28T00:51:09.484Z,21.21
2022-09-28T00:56:13.014Z,21.19
2022-09-28T01:01:15.651Z,21.18
2022-09-28T01:06:21.025Z,21.17
2022-09-28T01:11:23.623Z,21.15
2022-09-28T01:16:29.604Z,21.13
2022-09-28T01:21:39.306Z,21.13
2022-09-28T01:26:49.454Z,21.10
2022-09-28T01:31:53.956Z,21.07
2022-09-28T01:36:57.188Z,21.07
2022-09-28T01:42:06.443Z,21.03
2022-09-28T01:47:09.403Z,21.02
2022-09-28T01:52:14.948Z,21.02
2022-09-28T01:57:19.994Z,20.99
2022-09-28T02:02:25.314Z,20.98
2022-09-28T02:07:31.219Z,20.99
2022-09-28T02:12:36.334Z,20.96
2022-09-28T02:17:39.603Z,20.94
2022-09-28T02:22:44.314Z,20.91
2022-09-28T02:27:51.850Z,20.91
2022-09-28T02:32:55.644Z,20.86
2022-09-28T02:37:59.344Z,20.86
2022-09-28T02:43:09.577Z,20.86
2022-09-28T02:48:41.553Z,20.83
2022-09-28T02:54:15.449Z,20.83
2022-09-28T02:59:29.296Z,20.81
2022-09-28T03:04:47.064Z,20.79
2022-09-28T03:10:00.148Z,20.74
2022-09-28T03:15:12.332Z,20.71
2022-09-28T03:20:16.350Z,20.71
2022-09-28T03:25:19.555Z,20.69
2022-09-28T03:30:23.652Z,20.69
2022-09-28T03:35:26.600Z,20.67
2022-09-28T03:40:29.706Z,20.67
2022-09-28T03:45:33.808Z,20.64
2022-09-28T03:50:36.504Z,20.62
2022-09-28T03:55:39.298Z,20.62
2022-09-28T04:00:43.455Z,20.60
2022-09-28T04:05:49.889Z,20.59
2022-09-28T04:10:52.484Z,20.52
2022-09-28T04:15:57.501Z,20.56
2022-09-28T04:21:06.453Z,20.54
2022-09-28T04:26:16.482Z,20.53
2022-09-28T04:31:21.731Z,20.54
2022-09-28T04:36:25.009Z,20.51
2022-09-28T04:41:27.744Z,20.50
2022-09-28T04:46:31.791Z,20.50
2022-09-28T04:51:52.913Z,20.49
2022-09-28T04:56:55.633Z,20.48
2022-09-28T05:01:59.717Z,20.48
2022-09-28T05:07:25.491Z,20.45
2022-09-28T05:12:28.139Z,20.44
2022-09-28T05:17:32.559Z,20.42
2022-09-28T05:22:53.902Z,20.41
2022-09-28T05:27:57.657Z,20.40
2022-09-28T05:33:14.049Z,20.40
2022-09-28T05:38:19.820Z,20.37
2022-09-28T05:43:22.609Z,20.37
2022-09-28T05:48:27.603Z,20.35
2022-09-28T05:53:30.352Z,20.34
2022-09-28T05:58:34.388Z,20.33
2022-09-28T06:03:38.472Z,20.34
2022-09-28T06:08:42.889Z,20.33
2022-09-28T06:14:09.207Z,20.32
2022-09-28T06:19:13.569Z,20.33
2022-09-28T06:24:40.425Z,20.33
2022-09-28T06:29:43.392Z,20.29
2022-09-28T06:34:47.446Z,20.33
2022-09-28T06:39:50.105Z,20.32
2022-09-28T06:44:53.183Z,20.30
2022-09-28T06:50:03.564Z,20.34
2022-09-28T06:55:26.165Z,20.32
2022-09-28T07:00:33.959Z,20.32
2022-09-28T07:05:41.429Z,20.32
2022-09-28T07:11:13.534Z,20.28
2022-09-28T07:17:06.185Z,20.30
2022-09-28T07:22:05.243Z,20.31
2022-09-28T07:27:09.519Z,20.30
2022-09-28T07:37:59.461Z,20.15
2022-09-28T07:43:05.990Z,20.16
2022-09-28T07:48:08.686Z,20.19
2022-09-28T07:53:33.306Z,20.22
2022-09-28T07:59:04.811Z,20.22
2022-09-28T08:04:16.180Z,20.24
2022-09-28T08:09:22.601Z,20.22
2022-09-28T08:15:01.011Z,20.14
2022-09-28T08:20:41.389Z,20.10
2022-09-28T08:25:48.957Z,20.09
2022-09-28T08:30:52.088Z,20.09
2022-09-28T08:36:20.678Z,19.35
2022-09-28T08:41:46.273Z,18.64
2022-09-28T08:47:06.463Z,18.44
2022-09-28T08:52:30.164Z,19.07
2022-09-28T08:58:04.788Z,19.33
2022-09-28T09:03:12.612Z,19.46
2022-09-28T09:08:23.321Z,19.55
2022-09-28T09:13:46.330Z,19.60
2022-09-28T09:18:55.201Z,19.66
2022-09-28T09:24:12.893Z,19.70
2022-09-28T09:29:28.140Z,19.73
2022-09-28T09:34:52.667Z,19.75
2022-09-28T09:40:30.571Z,19.82
2022-09-28T09:46:02.532Z,19.88
2022-09-28T09:51:32.742Z,19.89
2022-09-28T09:56:38.438Z,19.95
2022-09-28T10:01:51.765Z,19.98
2022-09-28T10:07:04.702Z,20.04
2022-09-28T10:12:09.862Z,20.09
2022-09-28T10:17:14.857Z,20.12
2022-09-28T10:22:46.240Z,20.16
2022-09-28T10:27:52.846Z,20.17
2022-09-28T10:32:59.375Z,20.19
2022-09-28T10:38:07.841Z,20.17
2022-09-28T10:43:23.694Z,20.16
2022-09-28T10:48:36.537Z,20.18
2022-09-28T10:53:39.560Z,20.16
2022-09-28T10:58:53.582Z,20.10
2022-09-28T11:04:05.048Z,20.13
2022-09-28T11:09:29.771Z,20.09
2022-09-28T11:14:41.322Z,20.11
2022-09-28T11:19:52.214Z,20.19
2022-09-28T11:24:54.886Z,20.31
2022-09-28T11:29:58.485Z,20.29
2022-09-28T11:35:16.953Z,20.28
2022-09-28T11:40:27.324Z,20.22
2022-09-28T11:45:36.511Z,20.23
2022-09-28T11:50:47.522Z,20.19
2022-09-28T11:55:52.990Z,20.16
2022-09-28T12:00:58.719Z,20.16
2022-09-28T12:06:14.171Z,20.15
2022-09-28T12:11:19.205Z,20.12
2022-09-28T12:22:12.448Z,20.13
2022-09-28T12:27:16.709Z,20.14
2022-09-28T12:32:25.358Z,20.18
2022-09-28T12:37:35.962Z,20.16
2022-09-28T12:42:58.622Z,20.13
2022-09-28T12:48:09.583Z,20.17
2022-09-28T12:53:29.304Z,20.19
2022-09-28T12:58:39.999Z,20.14
2022-09-28T13:04:10.333Z,20.18
2022-09-28T13:09:21.513Z,20.21
2022-09-28T13:14:34.855Z,20.19
2022-09-28T13:19:39.440Z,20.23
2022-09-28T13:24:44.216Z,20.24
2022-09-28T13:29:49.102Z,20.47
2022-09-28T13:34:52.414Z,21.18
2022-09-28T13:39:56.937Z,21.51
2022-09-28T13:45:09.433Z,21.56
2022-09-28T13:50:19.392Z,21.34
2022-09-28T13:55:32.162Z,21.17
2022-09-28T14:00:38.038Z,22.01
2022-09-28T14:05:54.239Z,22.43
2022-09-28T14:10:58.289Z,22.02
2022-09-28T14:16:20.537Z,21.99
2022-09-28T14:21:53.814Z,21.88
2022-09-28T14:27:28.752Z,21.85
2022-09-28T14:32:37.336Z,21.70
2022-09-28T14:37:57.808Z,21.64
2022-09-28T14:43:23.956Z,21.70
2022-09-28T14:48:47.847Z,21.70
2022-09-28T14:53:51.043Z,22.48
2022-09-28T14:58:55.379Z,22.37
2022-09-28T15:04:00.985Z,22.73
2022-09-28T15:09:03.702Z,22.33
2022-09-28T15:14:07.240Z,22.31
2022-09-28T15:19:22.815Z,22.10
2022-09-28T15:24:27.275Z,21.96
2022-09-28T15:29:33.595Z,21.77
2022-09-28T15:34:54.502Z,21.46
2022-09-28T15:39:57.348Z,21.20
2022-09-28T15:45:06.217Z,21.19
2022-09-28T15:50:21.228Z,20.02
2022-09-28T15:55:25.691Z,20.44
2022-09-28T16:00:29.681Z,20.58
2022-09-28T16:05:37.757Z,20.66
2022-09-28T16:10:41.344Z,20.68
2022-09-28T16:15:44.127Z,20.70
2022-09-28T16:20:49.879Z,20.79
2022-09-28T16:25:53.772Z,20.71
2022-09-28T16:31:04.144Z,20.70
2022-09-28T16:36:19.252Z,20.72
2022-09-28T16:41:23.426Z,20.67
2022-09-28T16:46:31.146Z,20.64
2022-09-28T16:51:35.255Z,20.70
2022-09-28T16:56:37.967Z,20.67
2022-09-28T17:01:43.565Z,20.69
2022-09-28T17:06:47.609Z,20.61
2022-09-28T17:11:56.947Z,20.57
2022-09-28T17:22:23.890Z,20.53
2022-09-28T17:27:26.481Z,20.51
2022-09-28T17:32:29.069Z,20.50
2022-09-28T17:37:34.352Z,20.59
2022-09-28T17:42:36.918Z,20.64
2022-09-28T17:47:39.606Z,20.72
2022-09-28T17:52:43.513Z,20.79
2022-09-28T17:57:46.233Z,20.86
2022-09-28T18:02:48.904Z,20.93
2022-09-28T18:07:53.022Z,21.03
2022-09-28T18:12:55.667Z,21.07
2022-09-28T18:17:58.253Z,21.16
2022-09-28T18:23:02.186Z,21.20
2022-09-28T18:28:04.843Z,21.27
2022-09-28T18:33:07.647Z,21.27
2022-09-28T18:38:11.697Z,21.36
2022-09-28T18:43:14.446Z,21.31
2022-09-28T18:48:17.085Z,21.43
2022-09-28T18:53:21.173Z,21.43
2022-09-28T18:58:23.981Z,21.42
2022-09-28T19:03:26.729Z,21.48
2022-09-28T19:08:30.818Z,21.45
2022-09-28T19:13:33.395Z,21.45
2022-09-28T19:18:36.132Z,21.48
2022-09-28T19:23:40.257Z,21.46
2022-09-28T19:28:43.071Z,21.50
2022-09-28T19:33:46.429Z,21.52
2022-09-28T19:38:51.289Z,21.53
2022-09-28T19:43:55.380Z,21.57
2022-09-28T19:49:01.118Z,21.61
2022-09-28T19:54:05.837Z,21.61
2022-09-28T19:59:08.464Z,21.62
2022-09-28T20:04:11.236Z,21.64
2022-09-28T20:09:15.175Z,21.64
2022-09-28T20:14:18.548Z,21.66
2022-09-28T20:19:22.953Z,21.66
2022-09-28T20:24:28.680Z,21.67
2022-09-28T20:29:33.137Z,21.68
2022-09-28T20:34:36.022Z,21.71
2022-09-28T20:44:47.620Z,21.73
2022-09-28T20:49:50.277Z,21.75
2022-09-28T20:54:54.222Z,21.78
2022-09-28T20:59:56.807Z,21.75
2022-09-28T21:04:59.455Z,21.76
2022-09-28T21:10:03.493Z,21.75
2022-09-28T21:15:06.932Z,21.75
2022-09-28T21:20:10.200Z,21.72
2022-09-28T21:25:14.411Z,21.66
2022-09-28T21:30:20.004Z,21.66
2022-09-28T21:35:22.786Z,21.69
2022-09-28T21:40:26.820Z,21.67
2022-09-28T21:45:29.443Z,21.62
2022-09-28T21:50:32.054Z,21.65
2022-09-28T21:55:35.992Z,21.62
2022-09-28T22:00:38.595Z,21.64
2022-09-28T22:05:41.252Z,21.63
2022-09-28T22:10:45.214Z,21.57
2022-09-28T22:15:53.541Z,21.55
2022-09-28T22:20:59.622Z,21.59
2022-09-28T22:26:05.213Z,21.53
2022-09-28T22:31:08.030Z,21.49
2022-09-28T22:36:10.721Z,21.42
2022-09-28T22:41:15.865Z,21.36
2022-09-28T22:46:19.313Z,21.35
2022-09-28T22:51:22.522Z,21.32
2022-09-28T22:56:26.480Z,21.33
2022-09-28T23:01:30.036Z,21.30
2022-09-28T23:06:33.346Z,21.28
2022-09-28T23:11:37.346Z,21.25
2022-09-28T23:16:39.922Z,21.25
2022-09-28T23:21:42.693Z,21.22
2022-09-28T23:26:46.784Z,21.23
2022-09-28T23:31:49.373Z,21.20
2022-09-28T23:36:52.648Z,21.17
2022-09-28T23:41:58.861Z,21.16
2022-09-28T23:47:01.558Z,21.15
2022-09-28T23:52:04.187Z,21.09
2022-09-28T23:57:08.149Z,21.13
